sensor_id;sensor_type;location;lat;lon;timestamp;noise_LAeq;noise_LA_min;noise_LA_max;noise_LA01;noise_LA95
4048;Laerm;2038;51.728;6.674;2023-04-03T00:00:48;39.69;36.45;42.16;;
4048;Laerm;2038;51.728;6.674;2023-04-03T00:03:16;40.41;35.66;49.91;;
4048;Laerm;2038;51.728;6.674;2023-04-03T00:05:43;40.51;36.69;53.21;;
4048;Laerm;2038;51.728;6.674;2023-04-03T00:08:09;39.67;36.20;42.09;;
4048;Laerm;2038;51.728;6.674;2023-04-03T00:10:36;39.61;35.94;41.89;;
4048;Laerm;2038;51.728;6.674;2023-04-03T00:13:05;39.62;36.45;41.68;;
4048;Laerm;2038;51.728;6.674;2023-04-03T00:15:32;39.60;36.69;41.68;;
4048;Laerm;2038;51.728;6.674;2023-04-03T00:17:58;39.58;36.45;41.68;;
4048;Laerm;2038;51.728;6.674;2023-04-03T00:20:25;39.60;36.69;41.96;;
4048;Laerm;2038;51.728;6.674;2023-04-03T00:22:52;39.59;36.20;44.39;;
4048;Laerm;2038;51.728;6.674;2023-04-03T00:25:18;39.58;36.56;41.75;;
4048;Laerm;2038;51.728;6.674;2023-04-03T00:27:44;40.76;36.20;52.47;;
4048;Laerm;2038;51.728;6.674;2023-04-03T00:30:15;39.47;36.34;41.68;;
4048;Laerm;2038;51.728;6.674;2023-04-03T00:32:42;40.91;36.20;54.82;;
4048;Laerm;2038;51.728;6.674;2023-04-03T00:35:09;39.46;36.45;42.00;;
4048;Laerm;2038;51.728;6.674;2023-04-03T00:37:36;39.41;36.45;41.75;;
4048;Laerm;2038;51.728;6.674;2023-04-03T00:40:05;39.38;35.36;41.75;;
4048;Laerm;2038;51.728;6.674;2023-04-03T00:42:31;39.36;35.66;41.82;;
4048;Laerm;2038;51.728;6.674;2023-04-03T00:47:25;39.30;35.94;42.35;;
4048;Laerm;2038;51.728;6.674;2023-04-03T00:49:53;39.28;36.20;41.53;;
4048;Laerm;2038;51.728;6.674;2023-04-03T00:52:25;39.24;35.66;41.75;;
4048;Laerm;2038;51.728;6.674;2023-04-03T00:54:58;39.24;35.66;41.82;;
4048;Laerm;2038;51.728;6.674;2023-04-03T00:57:28;39.36;35.94;44.83;;
4048;Laerm;2038;51.728;6.674;2023-04-03T01:00:03;39.28;34.31;41.89;;
4048;Laerm;2038;51.728;6.674;2023-04-03T01:02:30;39.29;35.66;41.61;;
4048;Laerm;2038;51.728;6.674;2023-04-03T01:04:57;39.25;35.94;41.82;;
4048;Laerm;2038;51.728;6.674;2023-04-03T01:07:29;39.26;35.94;41.68;;
4048;Laerm;2038;51.728;6.674;2023-04-03T01:10:07;39.24;35.36;41.68;;
4048;Laerm;2038;51.728;6.674;2023-04-03T01:12:38;39.35;33.44;42.35;;
4048;Laerm;2038;51.728;6.674;2023-04-03T01:15:16;39.17;34.69;42.16;;
4048;Laerm;2038;51.728;6.674;2023-04-03T01:17:54;39.15;35.36;41.75;;
4048;Laerm;2038;51.728;6.674;2023-04-03T01:23:54;41.80;35.04;56.86;;
4048;Laerm;2038;51.728;6.674;2023-04-03T01:26:24;39.01;35.36;41.30;;
4048;Laerm;2038;51.728;6.674;2023-04-03T01:28:53;39.55;35.66;42.76;;
4048;Laerm;2038;51.728;6.674;2023-04-03T01:31:30;39.17;34.69;42.41;;
4048;Laerm;2038;51.728;6.674;2023-04-03T01:33:58;38.99;35.31;41.30;;
4048;Laerm;2038;51.728;6.674;2023-04-03T01:36:30;39.06;34.31;41.68;;
4048;Laerm;2038;51.728;6.674;2023-04-03T01:38:58;39.03;35.36;43.09;;
4048;Laerm;2038;51.728;6.674;2023-04-03T01:41:27;38.91;35.04;41.75;;
4048;Laerm;2038;51.728;6.674;2023-04-03T01:43:53;42.29;35.66;54.14;;
4048;Laerm;2038;51.728;6.674;2023-04-03T01:46:20;38.86;34.31;41.61;;
4048;Laerm;2038;51.728;6.674;2023-04-03T01:48:47;38.69;34.69;41.48;;
4048;Laerm;2038;51.728;6.674;2023-04-03T01:51:13;38.85;34.69;44.43;;
4048;Laerm;2038;51.728;6.674;2023-04-03T01:53:40;40.56;34.69;55.45;;
4048;Laerm;2038;51.728;6.674;2023-04-03T01:56:06;43.05;35.66;63.48;;
4048;Laerm;2038;51.728;6.674;2023-04-03T01:58:33;42.64;34.69;61.43;;
4048;Laerm;2038;51.728;6.674;2023-04-03T02:00:59;38.73;34.31;41.14;;
4048;Laerm;2038;51.728;6.674;2023-04-03T02:03:25;38.72;34.31;41.75;;
4048;Laerm;2038;51.728;6.674;2023-04-03T02:05:52;39.48;35.01;43.19;;
4048;Laerm;2038;51.728;6.674;2023-04-03T02:08:18;39.13;34.69;42.41;;
4048;Laerm;2038;51.728;6.674;2023-04-03T02:10:47;39.67;34.69;53.31;;
4048;Laerm;2038;51.728;6.674;2023-04-03T02:13:15;40.95;35.04;54.63;;
4048;Laerm;2038;51.728;6.674;2023-04-03T02:15:41;38.75;35.04;41.38;;
4048;Laerm;2038;51.728;6.674;2023-04-03T02:18:07;43.01;35.66;57.26;;
4048;Laerm;2038;51.728;6.674;2023-04-03T02:20:34;42.38;35.36;56.20;;
4048;Laerm;2038;51.728;6.674;2023-04-03T02:23:00;38.87;35.36;41.82;;
4048;Laerm;2038;51.728;6.674;2023-04-03T02:25:27;39.79;33.90;53.42;;
4048;Laerm;2038;51.728;6.674;2023-04-03T02:27:54;38.63;34.31;41.53;;
4048;Laerm;2038;51.728;6.674;2023-04-03T02:30:20;44.41;35.04;59.45;;
4048;Laerm;2038;51.728;6.674;2023-04-03T02:32:46;38.58;33.90;41.22;;
4048;Laerm;2038;51.728;6.674;2023-04-03T02:35:12;41.33;34.69;59.84;;
4048;Laerm;2038;51.728;6.674;2023-04-03T02:37:39;39.19;34.69;45.72;;
4048;Laerm;2038;51.728;6.674;2023-04-03T02:40:06;38.66;35.04;41.68;;
4048;Laerm;2038;51.728;6.674;2023-04-03T02:42:33;46.95;34.31;66.12;;
4048;Laerm;2038;51.728;6.674;2023-04-03T02:44:59;43.37;35.04;60.28;;
4048;Laerm;2038;51.728;6.674;2023-04-03T02:47:27;38.74;34.69;41.38;;
4048;Laerm;2038;51.728;6.674;2023-04-03T02:49:53;40.00;35.04;51.35;;
4048;Laerm;2038;51.728;6.674;2023-04-03T02:52:20;39.33;34.31;50.73;;
4048;Laerm;2038;51.728;6.674;2023-04-03T02:54:47;40.31;35.36;52.07;;
4048;Laerm;2038;51.728;6.674;2023-04-03T02:57:13;39.75;35.04;50.06;;
4048;Laerm;2038;51.728;6.674;2023-04-03T02:59:39;42.77;35.94;58.09;;
4048;Laerm;2038;51.728;6.674;2023-04-03T03:02:08;47.39;35.94;61.17;;
4048;Laerm;2038;51.728;6.674;2023-04-03T03:04:34;46.77;35.94;60.26;;
4048;Laerm;2038;51.728;6.674;2023-04-03T03:07:02;42.35;35.86;58.61;;
4048;Laerm;2038;51.728;6.674;2023-04-03T03:09:29;40.49;35.36;52.37;;
4048;Laerm;2038;51.728;6.674;2023-04-03T03:11:56;43.75;35.04;59.26;;
4048;Laerm;2038;51.728;6.674;2023-04-03T03:14:23;41.21;35.94;59.07;;
4048;Laerm;2038;51.728;6.674;2023-04-03T03:16:49;42.72;35.66;55.46;;
4048;Laerm;2038;51.728;6.674;2023-04-03T03:19:16;39.17;35.66;42.41;;
4048;Laerm;2038;51.728;6.674;2023-04-03T03:21:42;39.22;34.31;43.29;;
4048;Laerm;2038;51.728;6.674;2023-04-03T03:24:08;39.17;35.66;41.89;;
4048;Laerm;2038;51.728;6.674;2023-04-03T03:26:35;41.68;34.31;54.33;;
4048;Laerm;2038;51.728;6.674;2023-04-03T03:29:02;42.22;36.45;52.72;;
4048;Laerm;2038;51.728;6.674;2023-04-03T03:31:28;42.37;36.20;59.52;;
4048;Laerm;2038;51.728;6.674;2023-04-03T03:33:54;42.20;35.66;54.65;;
4048;Laerm;2038;51.728;6.674;2023-04-03T03:36:20;43.89;35.66;56.13;;
4048;Laerm;2038;51.728;6.674;2023-04-03T03:38:47;43.15;35.66;54.17;;
4048;Laerm;2038;51.728;6.674;2023-04-03T03:41:13;42.94;35.04;53.74;;
4048;Laerm;2038;51.728;6.674;2023-04-03T03:43:39;40.97;36.91;52.29;;
4048;Laerm;2038;51.728;6.674;2023-04-03T03:46:05;45.73;35.66;60.36;;
4048;Laerm;2038;51.728;6.674;2023-04-03T03:48:32;45.47;35.94;59.92;;
4048;Laerm;2038;51.728;6.674;2023-04-03T03:50:58;43.01;35.94;59.13;;
4048;Laerm;2038;51.728;6.674;2023-04-03T03:53:24;45.48;36.69;61.40;;
4048;Laerm;2038;51.728;6.674;2023-04-03T03:55:51;40.76;35.94;53.11;;
4048;Laerm;2038;51.728;6.674;2023-04-03T03:58:17;43.83;35.66;56.12;;
4048;Laerm;2038;51.728;6.674;2023-04-03T04:00:44;47.46;36.45;63.67;;
4048;Laerm;2038;51.728;6.674;2023-04-03T04:03:10;43.21;35.94;55.78;;
4048;Laerm;2038;51.728;6.674;2023-04-03T04:05:36;44.35;36.20;56.33;;
4048;Laerm;2038;51.728;6.674;2023-04-03T04:08:03;39.86;35.94;50.06;;
4048;Laerm;2038;51.728;6.674;2023-04-03T04:10:29;47.02;35.04;60.67;;
4048;Laerm;2038;51.728;6.674;2023-04-03T04:12:55;45.57;36.20;58.94;;
4048;Laerm;2038;51.728;6.674;2023-04-03T04:15:21;44.38;36.45;57.40;;
4048;Laerm;2038;51.728;6.674;2023-04-03T04:17:48;46.47;36.20;61.40;;
4048;Laerm;2038;51.728;6.674;2023-04-03T04:20:15;44.44;36.69;61.03;;
4048;Laerm;2038;51.728;6.674;2023-04-03T04:22:41;45.68;36.69;59.27;;
4048;Laerm;2038;51.728;6.674;2023-04-03T04:25:07;43.82;36.45;54.11;;
4048;Laerm;2038;51.728;6.674;2023-04-03T04:27:34;44.91;36.20;57.40;;
4048;Laerm;2038;51.728;6.674;2023-04-03T04:30:00;44.46;35.66;57.53;;
4048;Laerm;2038;51.728;6.674;2023-04-03T04:32:27;43.68;35.94;57.98;;
4048;Laerm;2038;51.728;6.674;2023-04-03T04:34:53;40.86;35.94;52.24;;
4048;Laerm;2038;51.728;6.674;2023-04-03T04:37:19;45.94;35.94;60.33;;
4048;Laerm;2038;51.728;6.674;2023-04-03T04:39:45;46.27;36.69;58.53;;
4048;Laerm;2038;51.728;6.674;2023-04-03T04:42:12;46.84;36.20;63.04;;
4048;Laerm;2038;51.728;6.674;2023-04-03T04:44:39;45.08;36.20;58.03;;
4048;Laerm;2038;51.728;6.674;2023-04-03T04:47:05;48.14;37.52;60.01;;
4048;Laerm;2038;51.728;6.674;2023-04-03T04:49:32;49.01;37.12;59.61;;
4048;Laerm;2038;51.728;6.674;2023-04-03T04:51:58;43.30;36.69;58.04;;
4048;Laerm;2038;51.728;6.674;2023-04-03T04:54:24;48.53;37.52;61.95;;
4048;Laerm;2038;51.728;6.674;2023-04-03T04:56:51;47.88;37.70;60.79;;
4048;Laerm;2038;51.728;6.674;2023-04-03T04:59:17;44.17;35.94;55.56;;
4048;Laerm;2038;51.728;6.674;2023-04-03T05:01:43;46.10;36.45;64.04;;
4048;Laerm;2038;51.728;6.674;2023-04-03T05:04:10;46.20;37.32;63.38;;
4048;Laerm;2038;51.728;6.674;2023-04-03T05:06:38;47.76;36.45;62.42;;
4048;Laerm;2038;51.728;6.674;2023-04-03T05:09:04;45.25;37.52;54.36;;
4048;Laerm;2038;51.728;6.674;2023-04-03T05:11:31;49.63;36.45;64.21;;
4048;Laerm;2038;51.728;6.674;2023-04-03T05:13:57;47.80;36.91;63.15;;
4048;Laerm;2038;51.728;6.674;2023-04-03T05:16:23;44.50;36.45;58.74;;
4048;Laerm;2038;51.728;6.674;2023-04-03T05:18:50;46.99;37.88;57.54;;
4048;Laerm;2038;51.728;6.674;2023-04-03T05:21:16;45.83;36.91;54.45;;
4048;Laerm;2038;51.728;6.674;2023-04-03T05:23:44;45.42;36.45;54.68;;
4048;Laerm;2038;51.728;6.674;2023-04-03T05:26:10;46.41;37.52;57.29;;
4048;Laerm;2038;51.728;6.674;2023-04-03T05:28:36;46.59;36.69;62.68;;
4048;Laerm;2038;51.728;6.674;2023-04-03T05:31:03;44.91;36.45;55.88;;
4048;Laerm;2038;51.728;6.674;2023-04-03T05:33:29;48.61;38.21;61.86;;
4048;Laerm;2038;51.728;6.674;2023-04-03T05:35:55;49.93;39.21;62.41;;
4048;Laerm;2038;51.728;6.674;2023-04-03T05:38:21;46.77;38.52;58.65;;
4048;Laerm;2038;51.728;6.674;2023-04-03T05:40:48;45.38;36.91;54.82;;
4048;Laerm;2038;51.728;6.674;2023-04-03T05:43:14;45.95;36.91;60.18;;
4048;Laerm;2038;51.728;6.674;2023-04-03T05:45:40;46.48;37.52;58.34;;
4048;Laerm;2038;51.728;6.674;2023-04-03T05:48:07;46.76;36.69;59.27;;
4048;Laerm;2038;51.728;6.674;2023-04-03T05:50:33;43.43;36.69;54.59;;
4048;Laerm;2038;51.728;6.674;2023-04-03T05:53:02;46.50;36.20;63.54;;
4048;Laerm;2038;51.728;6.674;2023-04-03T05:55:29;46.03;35.36;57.81;;
4048;Laerm;2038;51.728;6.674;2023-04-03T05:57:55;45.97;36.45;59.99;;
4048;Laerm;2038;51.728;6.674;2023-04-03T06:00:22;44.82;36.20;54.87;;
4048;Laerm;2038;51.728;6.674;2023-04-03T06:02:48;47.11;35.66;60.23;;
4048;Laerm;2038;51.728;6.674;2023-04-03T06:05:14;44.49;36.20;54.59;;
4048;Laerm;2038;51.728;6.674;2023-04-03T06:07:41;46.78;36.20;61.60;;
4048;Laerm;2038;51.728;6.674;2023-04-03T06:10:07;45.54;36.20;57.94;;
4048;Laerm;2038;51.728;6.674;2023-04-03T06:12:34;48.57;35.94;62.36;;
4048;Laerm;2038;51.728;6.674;2023-04-03T06:15:01;47.34;35.59;57.43;;
4048;Laerm;2038;51.728;6.674;2023-04-03T06:17:28;48.22;37.12;61.91;;
4048;Laerm;2038;51.728;6.674;2023-04-03T06:19:54;48.36;36.91;61.18;;
4048;Laerm;2038;51.728;6.674;2023-04-03T06:22:21;46.79;35.94;61.04;;
4048;Laerm;2038;51.728;6.674;2023-04-03T06:24:48;46.99;37.32;58.71;;
4048;Laerm;2038;51.728;6.674;2023-04-03T06:27:14;47.10;35.66;60.20;;
4048;Laerm;2038;51.728;6.674;2023-04-03T06:29:40;43.59;35.94;54.23;;
4048;Laerm;2038;51.728;6.674;2023-04-03T06:32:07;45.74;36.20;57.01;;
4048;Laerm;2038;51.728;6.674;2023-04-03T06:34:33;49.05;36.91;64.92;;
4048;Laerm;2038;51.728;6.674;2023-04-03T06:36:59;48.98;35.36;65.30;;
4048;Laerm;2038;51.728;6.674;2023-04-03T06:39:25;46.50;37.32;58.18;;
4048;Laerm;2038;51.728;6.674;2023-04-03T06:41:53;49.43;36.91;61.31;;
4048;Laerm;2038;51.728;6.674;2023-04-03T06:44:19;45.55;37.70;59.52;;
4048;Laerm;2038;51.728;6.674;2023-04-03T06:46:45;45.87;36.45;56.21;;
4048;Laerm;2038;51.728;6.674;2023-04-03T06:49:12;43.79;36.45;55.49;;
4048;Laerm;2038;51.728;6.674;2023-04-03T06:51:38;47.17;36.69;58.47;;
4048;Laerm;2038;51.728;6.674;2023-04-03T06:54:06;48.63;35.94;65.13;;
4048;Laerm;2038;51.728;6.674;2023-04-03T06:56:32;48.62;35.94;65.79;;
4048;Laerm;2038;51.728;6.674;2023-04-03T06:58:58;46.56;36.20;57.06;;
4048;Laerm;2038;51.728;6.674;2023-04-03T07:01:28;47.73;37.32;59.13;;
4048;Laerm;2038;51.728;6.674;2023-04-03T07:03:54;46.16;35.66;58.31;;
4048;Laerm;2038;51.728;6.674;2023-04-03T07:06:21;44.46;36.98;56.63;;
4048;Laerm;2038;51.728;6.674;2023-04-03T07:08:48;45.30;36.45;60.36;;
4048;Laerm;2038;51.728;6.674;2023-04-03T07:11:15;46.35;35.66;59.18;;
4048;Laerm;2038;51.728;6.674;2023-04-03T07:13:42;46.77;35.66;63.85;;
4048;Laerm;2038;51.728;6.674;2023-04-03T07:16:09;45.46;36.20;58.28;;
4048;Laerm;2038;51.728;6.674;2023-04-03T07:18:36;47.04;36.91;62.97;;
4048;Laerm;2038;51.728;6.674;2023-04-03T07:21:03;46.16;36.45;58.89;;
4048;Laerm;2038;51.728;6.674;2023-04-03T07:23:30;45.35;37.88;57.23;;
4048;Laerm;2038;51.728;6.674;2023-04-03T07:25:57;47.94;38.81;61.49;;
4048;Laerm;2038;51.728;6.674;2023-04-03T07:28:23;45.97;36.91;56.56;;
4048;Laerm;2038;51.728;6.674;2023-04-03T07:31:03;46.78;36.45;59.73;;
4048;Laerm;2038;51.728;6.674;2023-04-03T07:33:31;44.90;35.94;59.24;;
4048;Laerm;2038;51.728;6.674;2023-04-03T07:35:57;46.53;36.20;61.80;;
4048;Laerm;2038;51.728;6.674;2023-04-03T07:38:24;46.31;35.66;57.42;;
4048;Laerm;2038;51.728;6.674;2023-04-03T07:40:52;43.27;35.36;54.64;;
4048;Laerm;2038;51.728;6.674;2023-04-03T07:43:20;45.27;36.45;60.87;;
4048;Laerm;2038;51.728;6.674;2023-04-03T07:45:49;45.79;36.20;56.36;;
4048;Laerm;2038;51.728;6.674;2023-04-03T07:48:22;48.14;36.45;58.93;;
4048;Laerm;2038;51.728;6.674;2023-04-03T07:50:49;43.68;35.36;54.46;;
4048;Laerm;2038;51.728;6.674;2023-04-03T07:53:16;48.59;36.20;66.93;;
4048;Laerm;2038;51.728;6.674;2023-04-03T07:55:46;45.48;34.69;57.18;;
4048;Laerm;2038;51.728;6.674;2023-04-03T07:58:16;46.76;36.20;61.77;;
4048;Laerm;2038;51.728;6.674;2023-04-03T08:00:43;47.34;35.94;61.98;;
4048;Laerm;2038;51.728;6.674;2023-04-03T08:03:11;45.54;36.98;60.87;;
4048;Laerm;2038;51.728;6.674;2023-04-03T08:05:42;44.31;37.12;55.60;;
4048;Laerm;2038;51.728;6.674;2023-04-03T08:08:12;46.35;36.45;57.19;;
4048;Laerm;2038;51.728;6.674;2023-04-03T08:10:38;45.04;36.20;55.73;;
4048;Laerm;2038;51.728;6.674;2023-04-03T08:13:08;50.40;36.91;64.02;;
4048;Laerm;2038;51.728;6.674;2023-04-03T08:15:35;44.74;35.36;55.51;;
4048;Laerm;2038;51.728;6.674;2023-04-03T08:18:02;47.03;35.66;61.44;;
4048;Laerm;2038;51.728;6.674;2023-04-03T08:20:29;44.48;33.90;61.18;;
4048;Laerm;2038;51.728;6.674;2023-04-03T08:22:55;48.56;35.94;64.55;;
4048;Laerm;2038;51.728;6.674;2023-04-03T08:25:24;45.93;37.32;58.61;;
4048;Laerm;2038;51.728;6.674;2023-04-03T08:27:50;47.40;36.45;60.41;;
4048;Laerm;2038;51.728;6.674;2023-04-03T08:30:17;44.61;36.20;57.96;;
4048;Laerm;2038;51.728;6.674;2023-04-03T08:32:43;47.56;36.56;64.46;;
4048;Laerm;2038;51.728;6.674;2023-04-03T08:35:11;47.59;36.91;61.17;;
4048;Laerm;2038;51.728;6.674;2023-04-03T08:37:39;44.01;35.04;59.37;;
4048;Laerm;2038;51.728;6.674;2023-04-03T08:40:11;45.34;35.94;60.54;;
4048;Laerm;2038;51.728;6.674;2023-04-03T08:42:54;48.78;36.69;64.53;;
4048;Laerm;2038;51.728;6.674;2023-04-03T08:45:48;46.42;36.69;56.73;;
4048;Laerm;2038;51.728;6.674;2023-04-03T08:48:41;46.90;35.86;60.58;;
4048;Laerm;2038;51.728;6.674;2023-04-03T08:51:20;44.68;36.45;55.24;;
4048;Laerm;2038;51.728;6.674;2023-04-03T08:54:18;48.06;37.70;59.86;;
4048;Laerm;2038;51.728;6.674;2023-04-03T08:56:48;47.27;36.69;58.15;;
4048;Laerm;2038;51.728;6.674;2023-04-03T08:59:27;47.88;36.45;66.53;;
4048;Laerm;2038;51.728;6.674;2023-04-03T09:01:56;45.95;36.45;56.75;;
4048;Laerm;2038;51.728;6.674;2023-04-03T09:04:32;46.41;36.91;57.99;;
4048;Laerm;2038;51.728;6.674;2023-04-03T09:07:19;46.49;36.20;57.81;;
4048;Laerm;2038;51.728;6.674;2023-04-03T09:09:47;44.82;34.69;60.91;;
4048;Laerm;2038;51.728;6.674;2023-04-03T09:12:28;47.14;36.69;63.05;;
4048;Laerm;2038;51.728;6.674;2023-04-03T09:15:15;50.30;36.69;65.92;;
4048;Laerm;2038;51.728;6.674;2023-04-03T09:18:05;49.79;35.94;63.49;;
4048;Laerm;2038;51.728;6.674;2023-04-03T09:20:57;47.84;37.12;63.81;;
4048;Laerm;2038;51.728;6.674;2023-04-03T09:23:46;44.96;37.32;58.15;;
4048;Laerm;2038;51.728;6.674;2023-04-03T09:26:23;49.85;38.67;61.46;;
4048;Laerm;2038;51.728;6.674;2023-04-03T09:28:55;46.11;35.94;67.03;;
4048;Laerm;2038;51.728;6.674;2023-04-03T09:31:46;47.98;35.94;61.91;;
4048;Laerm;2038;51.728;6.674;2023-04-03T09:34:31;49.64;37.87;62.23;;
4048;Laerm;2038;51.728;6.674;2023-04-03T09:37:00;44.54;36.91;54.84;;
4048;Laerm;2038;51.728;6.674;2023-04-03T09:39:49;49.08;36.20;64.26;;
4048;Laerm;2038;51.728;6.674;2023-04-03T09:42:21;50.50;35.66;65.08;;
4048;Laerm;2038;51.728;6.674;2023-04-03T09:45:23;46.90;35.94;61.56;;
4048;Laerm;2038;51.728;6.674;2023-04-03T09:48:14;48.25;37.88;62.04;;
4048;Laerm;2038;51.728;6.674;2023-04-03T09:53:46;45.94;33.90;58.67;;
4048;Laerm;2038;51.728;6.674;2023-04-03T09:59:06;46.68;36.91;61.16;;
4048;Laerm;2038;51.728;6.674;2023-04-03T10:01:39;45.94;37.52;57.11;;
4048;Laerm;2038;51.728;6.674;2023-04-03T10:04:15;51.32;38.21;68.67;;
4048;Laerm;2038;51.728;6.674;2023-04-03T10:06:46;47.91;35.94;61.77;;
4048;Laerm;2038;51.728;6.674;2023-04-03T10:09:28;47.79;35.66;62.44;;
4048;Laerm;2038;51.728;6.674;2023-04-03T10:12:12;47.72;36.20;64.47;;
4048;Laerm;2038;51.728;6.674;2023-04-03T10:15:00;53.08;39.46;70.96;;
4048;Laerm;2038;51.728;6.674;2023-04-03T10:17:57;47.20;37.12;63.23;;
4048;Laerm;2038;51.728;6.674;2023-04-03T10:20:59;47.54;36.20;60.25;;
4048;Laerm;2038;51.728;6.674;2023-04-03T10:23:49;47.46;38.67;57.43;;
4048;Laerm;2038;51.728;6.674;2023-04-03T10:26:56;50.65;36.91;62.93;;
4048;Laerm;2038;51.728;6.674;2023-04-03T10:29:40;50.95;37.88;62.00;;
4048;Laerm;2038;51.728;6.674;2023-04-03T10:38:23;46.63;36.98;63.43;;
4048;Laerm;2038;51.728;6.674;2023-04-03T10:41:07;49.10;37.88;64.71;;
4048;Laerm;2038;51.728;6.674;2023-04-03T10:43:59;48.70;38.95;62.59;;
4048;Laerm;2038;51.728;6.674;2023-04-03T10:46:49;49.24;39.81;61.36;;
4048;Laerm;2038;51.728;6.674;2023-04-03T10:49:43;50.24;40.43;67.80;;
4048;Laerm;2038;51.728;6.674;2023-04-03T10:52:41;49.83;40.71;65.87;;
4048;Laerm;2038;51.728;6.674;2023-04-03T10:55:31;47.92;38.81;60.73;;
4048;Laerm;2038;51.728;6.674;2023-04-03T10:58:01;51.03;39.92;63.17;;
4048;Laerm;2038;51.728;6.674;2023-04-03T11:00:42;46.30;36.20;58.15;;
4048;Laerm;2038;51.728;6.674;2023-04-03T11:03:30;49.46;40.43;72.06;;
4048;Laerm;2038;51.728;6.674;2023-04-03T11:06:02;47.75;39.08;60.83;;
4048;Laerm;2038;51.728;6.674;2023-04-03T11:08:57;47.95;37.12;63.42;;
4048;Laerm;2038;51.728;6.674;2023-04-03T11:11:33;47.22;36.20;63.89;;
4048;Laerm;2038;51.728;6.674;2023-04-03T11:14:05;49.25;39.08;64.47;;
4048;Laerm;2038;51.728;6.674;2023-04-03T11:16:46;46.49;38.52;64.87;;
4048;Laerm;2038;51.728;6.674;2023-04-03T11:19:31;49.37;37.53;62.64;;
4048;Laerm;2038;51.728;6.674;2023-04-03T11:22:09;48.51;36.20;64.37;;
4048;Laerm;2038;51.728;6.674;2023-04-03T11:24:42;47.99;36.91;62.21;;
4048;Laerm;2038;51.728;6.674;2023-04-03T11:27:17;46.72;36.91;62.58;;
4048;Laerm;2038;51.728;6.674;2023-04-03T11:29:46;51.25;38.52;63.82;;
4048;Laerm;2038;51.728;6.674;2023-04-03T11:35:21;45.42;38.05;62.58;;
4048;Laerm;2038;51.728;6.674;2023-04-03T11:37:51;50.56;38.05;61.69;;
4048;Laerm;2038;51.728;6.674;2023-04-03T11:40:25;45.88;35.36;60.00;;
4048;Laerm;2038;51.728;6.674;2023-04-03T11:43:21;47.98;36.45;65.10;;
4048;Laerm;2038;51.728;6.674;2023-04-03T11:46:08;49.46;38.81;62.24;;
4048;Laerm;2038;51.728;6.674;2023-04-03T11:53:43;47.20;37.52;62.23;;
4048;Laerm;2038;51.728;6.674;2023-04-03T12:01:57;48.85;37.32;62.39;;
4048;Laerm;2038;51.728;6.674;2023-04-03T12:04:27;47.42;37.52;61.79;;
4048;Laerm;2038;51.728;6.674;2023-04-03T12:07:18;48.97;38.95;64.77;;
4048;Laerm;2038;51.728;6.674;2023-04-03T12:12:34;48.62;38.52;61.11;;
4048;Laerm;2038;51.728;6.674;2023-04-03T12:15:51;47.67;38.05;59.18;;
4048;Laerm;2038;51.728;6.674;2023-04-03T12:21:18;49.09;36.91;65.63;;
4048;Laerm;2038;51.728;6.674;2023-04-03T12:26:46;45.14;38.81;59.10;;
4048;Laerm;2038;51.728;6.674;2023-04-03T12:41:45;49.78;39.46;65.22;;
4048;Laerm;2038;51.728;6.674;2023-04-03T12:44:47;48.01;37.12;62.50;;
4048;Laerm;2038;51.728;6.674;2023-04-03T12:47:34;52.29;37.70;71.59;;
4048;Laerm;2038;51.728;6.674;2023-04-03T12:52:51;49.96;37.88;63.62;;
4048;Laerm;2038;51.728;6.674;2023-04-03T12:55:22;47.60;37.12;59.61;;
4048;Laerm;2038;51.728;6.674;2023-04-03T12:57:48;46.80;37.12;60.24;;
4048;Laerm;2038;51.728;6.674;2023-04-03T13:00:32;48.87;38.05;63.64;;
4048;Laerm;2038;51.728;6.674;2023-04-03T13:03:02;48.84;38.60;61.36;;
4048;Laerm;2038;51.728;6.674;2023-04-03T13:05:31;46.25;36.91;62.77;;
4048;Laerm;2038;51.728;6.674;2023-04-03T13:08:09;45.63;37.12;55.99;;
4048;Laerm;2038;51.728;6.674;2023-04-03T13:11:17;45.28;37.12;58.08;;
4048;Laerm;2038;51.728;6.674;2023-04-03T13:14:12;45.22;37.52;57.23;;
4048;Laerm;2038;51.728;6.674;2023-04-03T13:16:40;45.81;37.52;57.46;;
4048;Laerm;2038;51.728;6.674;2023-04-03T13:19:17;47.93;35.94;65.64;;
4048;Laerm;2038;51.728;6.674;2023-04-03T13:21:44;51.12;37.70;65.30;;
4048;Laerm;2038;51.728;6.674;2023-04-03T13:24:11;47.34;38.52;57.02;;
4048;Laerm;2038;51.728;6.674;2023-04-03T13:26:38;51.17;39.08;65.63;;
4048;Laerm;2038;51.728;6.674;2023-04-03T13:29:27;47.66;38.05;56.16;;
4048;Laerm;2038;51.728;6.674;2023-04-03T13:31:56;49.77;37.32;63.55;;
4048;Laerm;2038;51.728;6.674;2023-04-03T13:34:26;47.84;39.46;65.59;;
4048;Laerm;2038;51.728;6.674;2023-04-03T13:39:29;48.85;37.52;65.75;;
4048;Laerm;2038;51.728;6.674;2023-04-03T13:42:15;49.67;38.81;62.34;;
4048;Laerm;2038;51.728;6.674;2023-04-03T13:44:41;47.14;37.12;59.69;;
4048;Laerm;2038;51.728;6.674;2023-04-03T13:47:17;44.96;36.91;57.81;;
4048;Laerm;2038;51.728;6.674;2023-04-03T13:49:58;46.91;37.70;56.98;;
4048;Laerm;2038;51.728;6.674;2023-04-03T13:52:33;49.48;39.21;66.79;;
4048;Laerm;2038;51.728;6.674;2023-04-03T13:55:24;46.99;36.45;61.07;;
4048;Laerm;2038;51.728;6.674;2023-04-03T13:57:56;45.46;37.52;56.82;;
4048;Laerm;2038;51.728;6.674;2023-04-03T14:00:47;46.33;38.37;55.99;;
4048;Laerm;2038;51.728;6.674;2023-04-03T14:03:31;48.02;38.67;64.83;;
4048;Laerm;2038;51.728;6.674;2023-04-03T14:05:58;51.29;38.05;68.40;;
4048;Laerm;2038;51.728;6.674;2023-04-03T14:08:25;48.95;40.89;58.63;;
4048;Laerm;2038;51.728;6.674;2023-04-03T14:10:53;48.86;39.34;60.61;;
4048;Laerm;2038;51.728;6.674;2023-04-03T14:13:20;48.01;39.08;60.47;;
4048;Laerm;2038;51.728;6.674;2023-04-03T14:15:47;47.63;38.52;57.69;;
4048;Laerm;2038;51.728;6.674;2023-04-03T14:18:19;46.95;38.18;58.86;;
4048;Laerm;2038;51.728;6.674;2023-04-03T14:20:47;45.48;38.67;56.62;;
4048;Laerm;2038;51.728;6.674;2023-04-03T14:23:14;48.04;38.52;57.90;;
4048;Laerm;2038;51.728;6.674;2023-04-03T14:25:41;47.05;38.05;62.51;;
4048;Laerm;2038;51.728;6.674;2023-04-03T14:28:21;50.08;39.21;63.43;;
4048;Laerm;2038;51.728;6.674;2023-04-03T14:30:50;49.89;38.37;66.49;;
4048;Laerm;2038;51.728;6.674;2023-04-03T14:33:21;50.55;35.66;65.81;;
4048;Laerm;2038;51.728;6.674;2023-04-03T14:35:48;48.17;37.12;58.56;;
4048;Laerm;2038;51.728;6.674;2023-04-03T14:38:25;51.02;37.52;69.72;;
4048;Laerm;2038;51.728;6.674;2023-04-03T14:40:55;47.17;38.52;58.61;;
4048;Laerm;2038;51.728;6.674;2023-04-03T14:43:23;49.30;38.95;64.92;;
4048;Laerm;2038;51.728;6.674;2023-04-03T14:45:50;48.24;39.21;58.64;;
4048;Laerm;2038;51.728;6.674;2023-04-03T14:48:24;46.95;38.81;58.42;;
4048;Laerm;2038;51.728;6.674;2023-04-03T14:50:53;47.91;39.58;56.86;;
4048;Laerm;2038;51.728;6.674;2023-04-03T14:53:20;48.32;39.70;61.46;;
4048;Laerm;2038;51.728;6.674;2023-04-03T14:55:51;48.32;38.52;62.58;;
4048;Laerm;2038;51.728;6.674;2023-04-03T14:58:20;47.82;38.52;58.22;;
4048;Laerm;2038;51.728;6.674;2023-04-03T15:00:47;46.57;38.05;58.82;;
4048;Laerm;2038;51.728;6.674;2023-04-03T15:03:21;47.70;36.69;57.50;;
4048;Laerm;2038;51.728;6.674;2023-04-03T15:05:49;49.14;36.91;63.68;;
4048;Laerm;2038;51.728;6.674;2023-04-03T15:08:23;48.66;37.32;60.92;;
4048;Laerm;2038;51.728;6.674;2023-04-03T15:10:52;47.86;36.69;57.69;;
4048;Laerm;2038;51.728;6.674;2023-04-03T15:13:19;47.49;36.69;56.14;;
4048;Laerm;2038;51.728;6.674;2023-04-03T15:15:47;51.04;35.36;66.82;;
4048;Laerm;2038;51.728;6.674;2023-04-03T15:18:26;45.78;36.91;58.11;;
4048;Laerm;2038;51.728;6.674;2023-04-03T15:20:53;45.61;37.70;55.38;;
4048;Laerm;2038;51.728;6.674;2023-04-03T15:23:20;47.09;38.02;57.62;;
4048;Laerm;2038;51.728;6.674;2023-04-03T15:25:52;47.89;37.52;59.51;;
4048;Laerm;2038;51.728;6.674;2023-04-03T15:28:48;47.14;38.21;64.19;;
4048;Laerm;2038;51.728;6.674;2023-04-03T15:31:15;45.40;36.91;56.25;;